Airfield :
LOGIN :

Register | Disclaimer

   EN    FR    IT 

 










Legend :    VFR   Marginal VFR   IFR   Intensive IFR   Very Intensive IFR
Visi :
Ceiling :
>= 8 km
>= 3000ft
5 to 8 km
1000 to 3000 ft
1500m to 5 km
500 to 1000 ft
800 to 1500m
200 to 500 ft
< 800m
< 200 ft
Symbols :   Thunderstorms  Fog  Heavy snow  Heavy precipitations  Wind > 20 kt
SIGMETs :     Misc.  Thunderstorms  Icing  Turbulence  Mountain Waves  Volcanic Ashes






- Airport Elevation : 2001 ft
- IATA code : MAD


LEMD - Madrid

CURRENT METAR :
  • 011230Z 05005KT 330V120 CAVOK 12/00 Q1015 NOSIG

EXPIRED METARs :
  • 011200Z 02008KT 320V070 CAVOK 11/02 Q1015 NOSIG
  • 011130Z 03008KT 330V090 CAVOK 11/02 Q1015 NOSIG
  • 011100Z 03007KT 350V090 CAVOK 10/02 Q1016 NOSIG
  • 011030Z 02006KT 330V060 CAVOK 10/03 Q1016 NOSIG
  • 011000Z 02006KT 330V100 CAVOK 09/03 Q1016 NOSIG

TAF TAF LEMD
Valid from the 01 at 12:00 until the 02 at 18:00 UTC


011100Z 0112/0218 04008KT CAVOK TX14/0114Z TN01/0206Z
TEMPO 0203/0210 BKN025



MET'MAP, your aeronautical weather chart ! - Copyright ORBIFLY December 2007 - Disclaimer

ORBIFLY MET'MAP TEAM :

Programming & Development : Alexandra Zaïnal
Original concept : Baudouin d'Aumeries
Technical & hardware support : Manuel Goepfert
Assistance : Marc-Olivier Méhu




SOURCES & CREDITS :

   NOAA